createdAt,value
2023-05-20T00:01:38.752Z,97669.77
2023-05-20T00:11:42.311Z,97677.69
2023-05-20T00:21:45.423Z,97664.50
2023-05-20T00:31:48.504Z,97662.03
2023-05-20T00:41:52.278Z,97659.39
2023-05-20T00:51:55.524Z,97659.91
2023-05-20T01:01:59.493Z,97654.30
2023-05-20T01:12:09.883Z,97635.49
2023-05-20T01:22:14.811Z,97643.75
2023-05-20T01:32:40.658Z,97652.55
2023-05-20T01:42:46.079Z,97640.61
2023-05-20T01:52:49.882Z,97634.30
2023-05-20T02:02:53.026Z,97630.95
2023-05-20T02:12:56.353Z,97624.10
2023-05-20T02:23:00.045Z,97626.73
2023-05-20T02:33:03.078Z,97637.41
2023-05-20T02:43:06.215Z,97642.11
2023-05-20T02:53:10.470Z,97639.61
2023-05-20T03:03:14.278Z,97635.73
2023-05-20T03:13:17.653Z,97635.04
2023-05-20T03:23:21.520Z,97640.30
2023-05-20T03:33:26.480Z,97644.33
2023-05-20T03:43:30.145Z,97639.05
2023-05-20T03:53:33.572Z,97641.47
2023-05-20T04:03:37.443Z,97645.48
2023-05-20T04:13:40.939Z,97649.31
2023-05-20T04:23:44.345Z,97651.71
2023-05-20T04:33:47.701Z,97645.83
2023-05-20T04:43:51.048Z,97646.92
2023-05-20T04:53:54.574Z,97642.36
2023-05-20T05:03:57.801Z,97655.20
2023-05-20T05:14:00.922Z,97652.45
2023-05-20T05:24:04.683Z,97650.67
2023-05-20T05:34:07.927Z,97651.84
2023-05-20T05:44:11.241Z,97656.50
2023-05-20T05:54:14.481Z,97656.63
2023-05-20T06:04:17.871Z,97658.98
2023-05-20T06:14:21.400Z,97664.80
2023-05-20T06:24:25.126Z,97657.63
2023-05-20T06:34:28.675Z,97660.57
2023-05-20T06:44:33.149Z,97658.16
2023-05-20T06:55:06.288Z,97656.66
2023-05-20T07:05:11.172Z,97647.55
2023-05-20T07:15:14.530Z,97635.16
2023-05-20T07:25:18.547Z,97629.90
2023-05-20T07:35:22.048Z,97613.58
2023-05-20T07:45:25.977Z,97610.85
2023-05-20T07:55:29.347Z,97605.14
2023-05-20T08:05:34.173Z,97593.53
2023-05-20T08:15:37.506Z,97587.52
2023-05-20T08:25:40.935Z,97577.74
2023-05-20T08:35:44.507Z,97575.64
2023-05-20T08:45:47.741Z,97567.88
2023-05-20T08:56:01.002Z,97564.66
2023-05-20T09:06:06.729Z,97560.46
2023-05-20T09:16:11.233Z,97562.80
2023-05-20T09:26:15.018Z,97557.06
2023-05-20T09:36:20.547Z,97553.17
2023-05-20T09:46:24.116Z,97544.87
2023-05-20T09:56:28.614Z,97551.23
2023-05-20T10:07:07.033Z,97546.39
2023-05-20T10:17:19.701Z,97542.70
2023-05-20T10:27:22.863Z,97546.92
2023-05-20T10:37:32.900Z,97542.89
2023-05-20T10:47:37.367Z,97548.13
2023-05-20T10:57:41.588Z,97544.31
2023-05-20T11:07:44.743Z,97532.45
2023-05-20T11:17:59.918Z,97524.10
2023-05-20T11:28:03.246Z,97513.19
2023-05-20T11:38:10.421Z,97504.67
2023-05-20T11:48:15.944Z,97501.98
2023-05-20T11:58:25.031Z,97492.31
2023-05-20T12:08:28.267Z,97496.41
2023-05-20T12:18:32.082Z,97489.73
2023-05-20T12:28:35.441Z,97487.36
2023-05-20T12:38:38.614Z,97481.80
2023-05-20T12:48:42.768Z,97467.61
2023-05-20T12:58:46.199Z,97450.90
2023-05-20T13:08:49.426Z,97453.46
2023-05-20T13:18:52.916Z,97438.25
2023-05-20T13:28:56.349Z,97416.68
2023-05-20T13:38:59.697Z,97408.61
2023-05-20T13:49:03.084Z,97399.28
2023-05-20T13:59:06.298Z,97402.87
2023-05-20T14:09:09.574Z,97396.40
2023-05-20T14:19:12.900Z,97387.44
2023-05-20T14:29:16.373Z,97377.78
2023-05-20T14:39:19.454Z,97376.58
2023-05-20T14:49:22.516Z,97382.14
2023-05-20T14:59:25.937Z,97381.84
2023-05-20T15:09:29.046Z,97365.47
2023-05-20T15:19:33.107Z,97360.30
2023-05-20T15:29:38.649Z,97362.94
2023-05-20T15:39:42.353Z,97348.01
2023-05-20T15:49:45.652Z,97343.44
2023-05-20T15:59:48.760Z,97344.08
2023-05-20T16:09:52.049Z,97341.25
2023-05-20T16:19:55.471Z,97337.42
2023-05-20T16:30:00.004Z,97342.39
2023-05-20T16:40:04.561Z,97336.51
2023-05-20T16:50:08.628Z,97327.96
2023-05-20T17:00:13.450Z,97325.52
2023-05-20T17:10:16.676Z,97329.83
2023-05-20T17:20:20.032Z,97330.29
2023-05-20T17:30:23.311Z,97337.77
2023-05-20T17:40:26.531Z,97323.20
2023-05-20T17:50:29.932Z,97318.73
2023-05-20T18:00:34.726Z,97319.66
2023-05-20T18:10:39.208Z,97320.56
2023-05-20T18:20:42.375Z,97323.77
2023-05-20T18:30:46.016Z,97337.16
2023-05-20T18:40:49.739Z,97353.09
2023-05-20T18:50:53.235Z,97358.38
2023-05-20T19:01:48.209Z,97355.41
2023-05-20T19:11:59.167Z,97363.27
2023-05-20T19:22:03.109Z,97369.79
2023-05-20T19:32:07.086Z,97380.54
2023-05-20T19:42:10.726Z,97381.00
2023-05-20T19:52:18.734Z,97384.40
2023-05-20T20:02:23.302Z,97384.80
2023-05-20T20:12:27.027Z,97388.41
2023-05-20T20:22:30.912Z,97389.16
2023-05-20T20:32:36.313Z,97385.30
2023-05-20T20:42:42.167Z,97385.33
2023-05-20T20:52:45.431Z,97374.27
2023-05-20T21:02:52.915Z,97369.52
2023-05-20T21:12:58.246Z,97369.52
2023-05-20T21:23:01.508Z,97376.71
2023-05-20T21:33:04.947Z,97362.98
2023-05-20T21:43:08.095Z,97361.23
2023-05-20T21:53:11.172Z,97354.91
2023-05-20T22:03:14.821Z,97352.36
2023-05-20T22:13:20.779Z,97355.52
2023-05-20T22:23:23.976Z,97356.55
2023-05-20T22:33:27.131Z,97344.34
2023-05-20T22:43:30.248Z,97343.46
2023-05-20T22:53:33.466Z,97335.02
2023-05-20T23:03:36.778Z,97333.61
2023-05-20T23:13:39.894Z,97320.48
2023-05-20T23:23:42.945Z,97312.88
2023-05-20T23:33:46.177Z,97313.00
2023-05-20T23:43:49.407Z,97311.11
2023-05-20T23:53:52.473Z,97300.95
